Flight Track Log - Related Links

Times and Time Zones

All times are in EDT time to prevent confusion due to time zone crossing. See the JBU1403 flight status page for this flight to view local times or setup timezone preferences in your user account.

Time Position Orientation Groundspeed Altitude Reporting Facility
EDT Latitude Longitude Course Direction KTS MPH feet Rate Location/Type
Tue 05:52:54 AM 40.6531 -73.8431 128° Southeast 186 214 1,400  Level New York Center
Tue 05:53:56 AM 40.6119 -73.8958 224° Southwest 243 280 2,600 2,118 Climbing New York Center
Tue 05:54:53 AM 40.5411 -73.9006 183° South 284 327 5,600 2,650 Climbing New York Center
Tue 05:55:00 AM 40.4322 -73.4147 128° Southeast  Level FlightAware Approximate
Tue 05:55:56 AM 40.5372 -73.8103 93° East 249 287 7,900  Level New York Center
Tue 05:56:00 AM 40.3515 -73.2856 131° Southeast  Level FlightAware Approximate
Tue 05:56:53 AM 40.5525 -73.6936 80° East 257 296 10,600  Level New York Center
Tue 05:57:00 AM 40.2709 -73.1567 128° Southeast  Level FlightAware Approximate
Tue 05:57:53 AM 40.5594 -73.5819 85° East 311 358 11,300  Level New York Center
Tue 05:58:00 AM 40.1924 -73.0256 128° Southeast  Level FlightAware Approximate
Tue 05:58:53 AM 40.4933 -73.4728 129° Southeast 327 376 13,400  Level New York Center
Tue 05:59:53 AM 40.4125 -73.3633 134° Southeast 369 425 15,200 1,721 Climbing New York Center
Tue 06:00:55 AM 40.3375 -73.2681 136° Southeast 401 461 16,900 1,750 Climbing New York Center
Tue 06:01:53 AM 40.2458 -73.1614 138° Southeast 409 471 18,700 1,650 Climbing New York Center
Tue 06:02:55 AM 40.1564 -73.0550 138° Southeast 421 484 20,200 1,450 Climbing New York Center
Tue 06:03:53 AM 40.0686 -72.9489 137° Southeast 426 490 21,600 1,300 Climbing New York Center
Tue 06:04:55 AM 39.9769 -72.8431 138° Southeast 431 496 22,800 1,100 Climbing New York Center
Tue 06:05:53 AM 39.8850 -72.7322 137° Southeast 436 502 23,800 1,000 Climbing New York Center
Tue 06:06:55 AM 39.7889 -72.6186 138° Southeast 454 522 24,800 1,091 Climbing New York Center
Tue 06:07:54 AM 39.6886 -72.5028 138° Southeast 467 537 26,000 1,109 Climbing New York Center
Tue 06:08:54 AM 39.5922 -72.3872 137° Southeast 472 543 27,000 942 Climbing New York Center
Tue 06:09:55 AM 39.4917 -72.2719 138° Southeast 477 549 27,900 807 Climbing New York Center
Tue 06:10:53 AM 39.3911 -72.1514 137° Southeast 482 555 28,600 908 Climbing New York Center
Tue 06:11:54 AM 39.2883 -72.0286 137° Southeast 488 562 29,700 1,082 Climbing New York Center
Tue 06:12:55 AM 39.1831 -71.9142 140° Southeast 493 567 30,800 1,091 Climbing New York Center
Tue 06:13:55 AM 39.0842 -71.7897 136° Southeast 493 567 31,900 966 Climbing New York Center
Tue 06:14:53 AM 38.9789 -71.6786 141° Southeast 493 567 32,700 1,008 Climbing New York Center
Tue 06:15:54 AM 38.8756 -71.5653 139° Southeast 493 567 33,900 1,050 Climbing New York Center
Tue 06:16:53 AM 38.7761 -71.4494 138° Southeast 493 567 34,800 555 Climbing New York Center
Tue 06:17:53 AM 38.6789 -71.3314 137° Southeast 487 560 35,000 100 Climbing New York Center
Tue 06:18:53 AM 38.5750 -71.2136 138° Southeast 487 560 35,000  Level New York Center
Tue 06:19:55 AM 38.4711 -71.1042 140° Southeast 487 560 35,000  Level New York Center
Tue 06:20:53 AM 38.3714 -70.9872 137° Southeast 487 560 35,000  Level New York Center
Tue 06:21:54 AM 38.2653 -70.8783 141° Southeast 487 560 35,000  Level New York Center
Tue 06:22:55 AM 38.1631 -70.7567 137° Southeast 492 566 35,000  Level New York Center
Tue 06:23:53 AM 38.0589 -70.6433 139° Southeast 492 566 35,000  Level New York Center
Tue 06:24:54 AM 37.9503 -70.5381 143° Southeast 492 566 35,000  Level New York Center
Tue 06:40:48 AM 36.1667 -69.4500 168° South 472 543 35,000  Level New York Oceanic (ODAPS)
Tue 06:41:00 AM 36.2021 -69.4808 154° Southeast  Level FlightAware Approximate
Tue 06:42:00 AM 36.0882 -69.4330 167° South  Level FlightAware Approximate
Tue 06:43:00 AM 35.9700 -69.4006 167° South  Level FlightAware Approximate
Tue 06:44:00 AM 35.8519 -69.3682 167° South  Level FlightAware Approximate
Tue 06:45:00 AM 35.7337 -69.3360 168° South  Level FlightAware Approximate
Tue 06:46:00 AM 35.6155 -69.3038 168° South  Level FlightAware Approximate
Tue 06:47:00 AM 35.2658 -69.2091 168° South 472 543 35,000  Level FlightAware Transoceanic
Tue 06:48:00 AM 35.1371 -69.1751 168° South 472 543 35,000  Level FlightAware Transoceanic
Tue 06:49:00 AM 35.0083 -69.1413 168° South 472 543 35,000  Level FlightAware Transoceanic
Tue 06:50:00 AM 34.8796 -69.1075 168° South 472 543 35,000  Level FlightAware Transoceanic
Tue 06:51:00 AM 34.7508 -69.0739 168° South 472 543 35,000  Level FlightAware Transoceanic
Tue 06:52:00 AM 34.6221 -69.0403 168° South 472 543 35,000  Level FlightAware Transoceanic
Tue 06:53:00 AM 34.4933 -69.0069 168° South 472 543 35,000  Level FlightAware Transoceanic
Tue 06:54:00 AM 34.3645 -68.9735 168° South 472 543 35,000  Level FlightAware Transoceanic
Tue 06:55:00 AM 34.2357 -68.9403 168° South 472 543 35,000  Level FlightAware Transoceanic
Tue 06:56:00 AM 34.1069 -68.9071 168° South 472 543 35,000  Level FlightAware Transoceanic
Tue 06:57:00 AM 33.9781 -68.8741 168° South 472 543 35,000  Level FlightAware Transoceanic
Tue 06:58:00 AM 33.8492 -68.8412 168° South 472 543 35,000  Level FlightAware Transoceanic
Tue 06:59:00 AM 33.7204 -68.8083 168° South 472 543 35,000  Level FlightAware Transoceanic
Tue 07:00:00 AM 33.5916 -68.7756 168° South 472 543 35,000  Level FlightAware Transoceanic
Tue 07:01:00 AM 33.4627 -68.7429 168° South 472 543 35,000  Level FlightAware Transoceanic
Tue 07:02:00 AM 33.3339 -68.7104 168° South 472 543 35,000  Level FlightAware Transoceanic
Tue 07:03:00 AM 33.2050 -68.6779 168° South 472 543 35,000  Level FlightAware Transoceanic
Tue 07:04:00 AM 33.0761 -68.6456 168° South 472 543 35,000  Level FlightAware Transoceanic
Tue 07:05:00 AM 32.9472 -68.6133 168° South 472 543 35,000  Level FlightAware Transoceanic
Tue 07:06:00 AM 32.8183 -68.5812 168° South 472 543 35,000  Level FlightAware Transoceanic
Tue 07:07:00 AM 32.6894 -68.5491 168° South 472 543 35,000  Level FlightAware Transoceanic
Tue 07:08:00 AM 32.5605 -68.5171 168° South 472 543 35,000  Level FlightAware Transoceanic
Tue 07:09:00 AM 32.4316 -68.4852 168° South 472 543 35,000  Level FlightAware Transoceanic
Tue 07:10:00 AM 32.3027 -68.4534 168° South 472 543 35,000  Level FlightAware Transoceanic
Tue 07:11:00 AM 32.1738 -68.4217 168° South 472 543 35,000  Level FlightAware Transoceanic
Tue 07:12:00 AM 32.0448 -68.3901 168° South 472 543 35,000  Level FlightAware Transoceanic
Tue 07:13:00 AM 31.9159 -68.3586 168° South 472 543 35,000  Level FlightAware Transoceanic
Tue 07:14:00 AM 31.7869 -68.3271 168° South 472 543 35,000  Level FlightAware Transoceanic
Tue 07:15:00 AM 31.6579 -68.2958 168° South 472 543 35,000  Level FlightAware Transoceanic
Tue 07:16:00 AM 31.5290 -68.2645 168° South 472 543 35,000  Level FlightAware Transoceanic
Tue 07:17:00 AM 31.4000 -68.2333 168° South 472 543 35,000  Level FlightAware Transoceanic
Tue 07:18:00 AM 31.2736 -68.2029 168° South 472 543 35,000  Level FlightAware Transoceanic
Tue 07:19:00 AM 31.1472 -68.1726 168° South 472 543 35,000  Level FlightAware Transoceanic
Tue 07:20:00 AM 31.0207 -68.1424 168° South 472 543 35,000  Level FlightAware Transoceanic
Tue 07:21:00 AM 30.8943 -68.1122 168° South 472 543 35,000  Level FlightAware Transoceanic
Tue 07:22:00 AM 30.7679 -68.0821 168° South 472 543 35,000  Level FlightAware Transoceanic
Tue 07:23:00 AM 30.6414 -68.0521 168° South 472 543 35,000  Level FlightAware Transoceanic
Tue 07:24:00 AM 30.5149 -68.0222 168° South 472 543 35,000  Level FlightAware Transoceanic
Tue 07:25:00 AM 30.3885 -67.9924 169° South 472 543 35,000  Level FlightAware Transoceanic
Tue 07:26:00 AM 30.2620 -67.9626 169° South 472 543 35,000  Level FlightAware Transoceanic
Tue 07:27:00 AM 30.1355 -67.9329 169° South 472 543 35,000  Level FlightAware Transoceanic
Tue 07:28:00 AM 30.0090 -67.9033 169° South 472 543 35,000  Level FlightAware Transoceanic
Tue 07:29:00 AM 29.8825 -67.8737 169° South 472 543 35,000  Level FlightAware Transoceanic
Tue 07:30:00 AM 29.7561 -67.8443 169° South 472 543 35,000  Level FlightAware Transoceanic
Tue 07:31:00 AM 29.6296 -67.8149 169° South 472 543 35,000  Level FlightAware Transoceanic
Tue 07:32:00 AM 29.5030 -67.7856 169° South 472 543 35,000  Level FlightAware Transoceanic
Tue 07:33:00 AM 29.3765 -67.7563 169° South 472 543 35,000  Level FlightAware Transoceanic
Tue 07:34:00 AM 29.2500 -67.7272 169° South 472 543 35,000  Level FlightAware Transoceanic
Tue 07:35:00 AM 29.1235 -67.6981 169° South 472 543 35,000  Level FlightAware Transoceanic
Tue 07:36:00 AM 28.9969 -67.6690 169° South 472 543 35,000  Level FlightAware Transoceanic
Tue 07:37:00 AM 28.8704 -67.6401 169° South 472 543 35,000  Level FlightAware Transoceanic
Tue 07:38:00 AM 28.7438 -67.6112 169° South 472 543 35,000  Level FlightAware Transoceanic
Tue 07:39:00 AM 28.6173 -67.5824 169° South 472 543 35,000  Level FlightAware Transoceanic
Tue 07:40:00 AM 28.4907 -67.5536 169° South 472 543 35,000  Level FlightAware Transoceanic
Tue 07:41:00 AM 28.3641 -67.5249 169° South 472 543 35,000  Level FlightAware Transoceanic
Tue 07:42:00 AM 28.2376 -67.4963 169° South 472 543 35,000  Level FlightAware Transoceanic
Tue 07:43:00 AM 28.1110 -67.4678 169° South 472 543 35,000  Level FlightAware Transoceanic
Tue 07:44:00 AM 27.9844 -67.4393 169° South 472 543 35,000  Level FlightAware Transoceanic
Tue 07:45:00 AM 27.8578 -67.4109 169° South 472 543 35,000  Level FlightAware Transoceanic
Tue 07:46:00 AM 27.7312 -67.3826 169° South 472 543 35,000  Level FlightAware Transoceanic
Tue 07:47:00 AM 27.6046 -67.3543 169° South 472 543 35,000  Level FlightAware Transoceanic
Tue 07:48:00 AM 27.4780 -67.3261 169° South 472 543 35,000  Level FlightAware Transoceanic
Tue 07:49:00 AM 27.3514 -67.2979 169° South 472 543 35,000  Level FlightAware Transoceanic
Tue 07:50:00 AM 27.2248 -67.2699 169° South 472 543 35,000  Level FlightAware Transoceanic
Tue 07:51:00 AM 27.0982 -67.2418 169° South 472 543 35,000  Level FlightAware Transoceanic
Tue 07:52:00 AM 26.9715 -67.2139 169° South 472 543 35,000  Level FlightAware Transoceanic
Tue 07:53:00 AM 26.8449 -67.1860 169° South 472 543 35,000  Level FlightAware Transoceanic
Tue 07:54:00 AM 26.7183 -67.1582 169° South 472 543 35,000  Level FlightAware Transoceanic
Tue 07:54:08 AM 27.0833 -67.2500 169° South 446 513 35,000  Level New York Oceanic (ODAPS)
Tue 08:26:47 AM 22.4667 -66.4000 169° South 510 587 35,000  Level San Juan Center
Tue 08:27:00 AM 22.5381 -66.2711 169° South 446 513 35,000  Level FlightAware Transoceanic
Tue 08:27:48 AM 22.3333 -66.3833 173° South 470 541 35,000  Level San Juan Center
Tue 08:28:00 AM 22.4119 -66.2449 169° South 446 513 35,000  Level FlightAware Transoceanic
Tue 08:28:48 AM 22.2000 -66.3833 180° South 460 529 35,000  Level San Juan Center
Tue 08:29:00 AM 22.2857 -66.2188 169° South 446 513 35,000  Level FlightAware Transoceanic
Tue 08:29:48 AM 22.0667 -66.3500 167° South 470 541 35,000  Level San Juan Center
Tue 08:30:00 AM 22.1595 -66.1927 169° South 446 513 35,000  Level FlightAware Transoceanic
Tue 08:30:49 AM 21.9500 -66.2833 152° Southeast 480 552 35,000  Level San Juan Center
Tue 08:31:00 AM 22.0407 -66.1682 169° South  Level FlightAware Approximate
Tue 08:31:49 AM 21.8500 -66.2000 142° Southeast 500 575 35,000  Level San Juan Center
Tue 08:32:50 AM 21.7500 -66.1167 142° Southeast 490 564 35,000  Level San Juan Center
Tue 08:33:50 AM 21.6167 -66.1000 173° South 450 518 35,000  Level San Juan Center
Tue 08:34:50 AM 21.5000 -66.1167 188° South 450 518 35,000  Level San Juan Center
Tue 08:35:51 AM 21.3667 -66.1167 180° South 470 541 35,000  Level San Juan Center
Tue 08:36:51 AM 21.2167 -66.1333 186° South 460 529 35,000  Level San Juan Center
Tue 08:37:52 AM 21.0833 -66.1500 187° South 460 529 35,000  Level San Juan Center
Tue 08:38:52 AM 20.9667 -66.1667 188° South 460 529 35,000 -400 Level San Juan Center
Tue 08:39:52 AM 20.8333 -66.1833 187° South 460 529 34,200 -893 Descending San Juan Center
Tue 08:40:53 AM 20.7000 -66.1833 180° South 470 541 33,200 -942 Descending San Juan Center
Tue 08:41:53 AM 20.5667 -66.2000 187° South 480 552 32,300 -942 Descending San Juan Center
Tue 08:42:54 AM 20.4333 -66.2167 187° South 480 552 31,300 -992 Descending San Juan Center
Tue 08:43:54 AM 20.3000 -66.2167 180° South 470 541 30,300 -1,000 Descending San Juan Center
Tue 08:44:54 AM 20.1667 -66.2333 187° South 490 564 29,300 -1,339 Descending San Juan Center
Tue 08:45:55 AM 20.0167 -66.2500 186° South 480 552 27,600 -2,033 Descending San Juan Center
Tue 08:46:55 AM 19.9000 -66.2667 188° South 480 552 25,200 -2,350 Descending San Juan Center
Tue 08:47:55 AM 19.7667 -66.2667 180° South 470 541 22,900 -2,331 Descending San Juan Center
Tue 08:48:56 AM 19.6333 -66.2833 187° South 450 518 20,500 -2,380 Descending San Juan Center
Tue 08:49:56 AM 19.5167 -66.3000 188° South 420 483 18,100 -2,250 Descending San Juan Center
Tue 08:50:56 AM 19.4167 -66.3000 180° South 400 460 16,000 -2,033 Descending San Juan Center
Tue 08:51:57 AM 19.3000 -66.3167 188° South 380 437 14,000 -2,033 Descending San Juan Center
Tue 08:52:57 AM 19.2000 -66.3167 180° South 360 414 11,900 -1,450 Descending San Juan Center
Tue 08:53:57 AM 19.1000 -66.3333 189° South 340 391 11,100 -595 Descending San Juan Center
Tue 08:54:58 AM 19.0167 -66.2833 150° Southeast 350 403 10,700 -744 Descending San Juan Center
Tue 08:55:58 AM 18.9167 -66.2667 171° South 320 368 9,600 -1,190 Descending San Juan Center
Tue 08:56:59 AM 18.8333 -66.2500 169° South 290 334 8,300 -1,339 Descending San Juan Center
Tue 08:57:59 AM 18.7667 -66.2333 167° South 290 334 6,900 -1,450 Descending San Juan Center
Tue 08:58:59 AM 18.6833 -66.2333 180° South 280 322 5,400 -1,488 Descending San Juan Center
Tue 09:00:00 AM 18.6167 -66.2167 167° South 270 311 3,900 -1,190 Descending San Juan Center
Tue 09:01:00 AM 18.5333 -66.2000 169° South 260 299 3,000 -446 Descending San Juan Center
Tue 09:02:01 AM 18.4667 -66.2000 180° South 270 311 3,000  Level San Juan Center
Tue 09:03:01 AM 18.3833 -66.1833 169° South 250 288 3,000 -300 Level San Juan Center
Tue 09:04:01 AM 18.3833 -66.1333 90° East 190 219 2,400 -744 Descending San Juan Center
Tue 09:05:02 AM 18.4000 -66.0833 71° East 170 196 1,500 -843 Descending San Juan Center
Tue 09:06:02 AM 18.4167 -66.0333 71° East 130 150 700 -800 Descending San Juan Center

Login

Don't have an account? Register now (free) for customized features, flight alerts, and more!